createdAt,value
2022-09-10T00:01:32.359Z,15.50
2022-09-10T00:04:02.748Z,15.50
2022-09-10T00:06:34.315Z,15.50
2022-09-10T00:09:02.815Z,15.50
2022-09-10T00:11:32.016Z,15.50
2022-09-10T00:14:00.793Z,15.50
2022-09-10T00:16:29.030Z,15.40
2022-09-10T00:18:58.174Z,15.40
2022-09-10T00:21:27.641Z,15.50
2022-09-10T00:23:55.594Z,15.40
2022-09-10T00:26:25.701Z,15.40
2022-09-10T00:28:55.838Z,15.40
2022-09-10T00:31:25.023Z,15.30
2022-09-10T00:33:54.772Z,15.30
2022-09-10T00:36:25.295Z,15.30
2022-09-10T00:38:58.055Z,15.30
2022-09-10T00:41:26.617Z,15.30
2022-09-10T00:43:56.797Z,15.30
2022-09-10T00:46:32.222Z,15.20
2022-09-10T00:49:03.044Z,15.30
2022-09-10T00:51:35.855Z,15.20
2022-09-10T00:54:06.250Z,15.20
2022-09-10T00:56:35.599Z,15.20
2022-09-10T00:59:05.852Z,15.20
2022-09-10T01:01:35.777Z,15.20
2022-09-10T01:04:05.519Z,15.10
2022-09-10T01:06:33.895Z,15.10
2022-09-10T01:09:02.960Z,15.10
2022-09-10T01:11:47.907Z,15.10
2022-09-10T01:14:44.584Z,15.10
2022-09-10T01:17:19.302Z,15.10
2022-09-10T01:20:26.819Z,15.00
2022-09-10T01:23:14.551Z,15.00
2022-09-10T01:25:57.803Z,15.00
2022-09-10T01:28:34.819Z,15.00
2022-09-10T01:31:06.748Z,14.90
2022-09-10T01:33:38.952Z,15.00
2022-09-10T01:36:13.390Z,14.90
2022-09-10T01:38:42.693Z,14.90
2022-09-10T01:41:11.550Z,14.90
2022-09-10T01:43:44.328Z,14.90
2022-09-10T01:46:26.666Z,14.80
2022-09-10T01:49:04.855Z,14.80
2022-09-10T01:51:44.439Z,14.80
2022-09-10T01:54:27.840Z,14.80
2022-09-10T01:57:07.169Z,14.90
2022-09-10T01:59:44.623Z,14.80
2022-09-10T02:02:18.123Z,14.80
2022-09-10T02:04:47.839Z,14.80
2022-09-10T02:07:18.533Z,14.80
2022-09-10T02:09:47.336Z,14.80
2022-09-10T02:12:21.353Z,14.80
2022-09-10T02:14:59.854Z,14.70
2022-09-10T02:17:49.124Z,14.80
2022-09-10T02:20:19.246Z,14.80
2022-09-10T02:22:50.973Z,14.70
2022-09-10T02:25:20.090Z,14.70
2022-09-10T02:27:48.960Z,14.70
2022-09-10T02:30:20.209Z,14.70
2022-09-10T02:32:49.535Z,14.70
2022-09-10T02:35:17.900Z,14.70
2022-09-10T02:37:49.817Z,14.70
2022-09-10T02:40:19.441Z,14.70
2022-09-10T02:42:47.710Z,14.60
2022-09-10T02:45:21.521Z,14.60
2022-09-10T02:47:50.393Z,14.60
2022-09-10T02:50:18.811Z,14.60
2022-09-10T02:52:47.114Z,14.60
2022-09-10T02:55:15.916Z,14.60
2022-09-10T02:57:45.339Z,14.50
2022-09-10T03:00:13.827Z,14.50
2022-09-10T03:02:43.119Z,14.50
2022-09-10T03:05:13.396Z,14.50
2022-09-10T03:07:41.603Z,14.40
2022-09-10T03:10:10.238Z,14.40
2022-09-10T03:12:39.160Z,14.30
2022-09-10T03:15:08.501Z,14.30
2022-09-10T03:17:36.495Z,14.30
2022-09-10T03:20:07.043Z,14.30
2022-09-10T03:22:35.073Z,14.30
2022-09-10T03:25:03.121Z,14.30
2022-09-10T03:27:31.163Z,14.30
2022-09-10T03:29:59.168Z,14.30
2022-09-10T03:32:27.366Z,14.30
2022-09-10T03:34:55.873Z,14.30
2022-09-10T03:37:25.302Z,14.30
2022-09-10T03:39:53.699Z,14.30
2022-09-10T03:42:21.733Z,14.20
2022-09-10T03:44:49.753Z,14.20
2022-09-10T03:47:18.353Z,14.20
2022-09-10T03:49:46.475Z,14.20
2022-09-10T03:52:14.942Z,14.20
2022-09-10T03:54:45.887Z,14.10
2022-09-10T03:57:15.066Z,14.10
2022-09-10T03:59:43.159Z,14.10
2022-09-10T04:02:12.926Z,14.00
2022-09-10T04:04:41.298Z,14.00
2022-09-10T04:07:11.169Z,14.00
2022-09-10T04:09:39.302Z,14.00
2022-09-10T04:12:09.576Z,14.00
2022-09-10T04:14:37.786Z,13.90
2022-09-10T04:17:05.900Z,13.90
2022-09-10T04:19:35.336Z,13.90
2022-09-10T04:22:03.647Z,14.00
2022-09-10T04:24:33.357Z,14.00
2022-09-10T04:27:01.657Z,14.00
2022-09-10T04:29:31.531Z,14.00
2022-09-10T04:32:00.190Z,14.00
2022-09-10T04:34:31.858Z,14.00
2022-09-10T04:37:00.238Z,13.90
2022-09-10T04:39:28.804Z,13.90
2022-09-10T04:41:56.840Z,13.90
2022-09-10T04:44:25.606Z,13.90
2022-09-10T04:46:54.972Z,13.90
2022-09-10T04:49:23.126Z,13.90
2022-09-10T04:51:51.104Z,13.90
2022-09-10T04:54:20.067Z,13.90
2022-09-10T04:56:48.284Z,13.90
2022-09-10T04:59:16.371Z,13.90
2022-09-10T05:01:47.581Z,13.90
2022-09-10T05:04:17.115Z,13.90
2022-09-10T05:06:45.495Z,13.90
2022-09-10T05:09:13.509Z,13.90
2022-09-10T05:11:42.776Z,14.00
2022-09-10T05:14:11.947Z,14.00
2022-09-10T05:16:40.748Z,13.90
2022-09-10T05:19:08.986Z,13.90
2022-09-10T05:21:46.763Z,14.00
2022-09-10T05:24:15.162Z,14.00
2022-09-10T05:26:44.978Z,14.00
2022-09-10T05:29:13.999Z,14.00
2022-09-10T05:31:43.619Z,14.00
2022-09-10T05:34:11.686Z,14.10
2022-09-10T05:36:41.482Z,14.20
2022-09-10T05:39:10.902Z,14.20
2022-09-10T05:41:40.023Z,14.20
2022-09-10T05:44:08.951Z,14.20
2022-09-10T05:46:36.949Z,14.30
2022-09-10T05:49:13.029Z,14.40
2022-09-10T05:51:41.906Z,14.40
2022-09-10T05:54:12.676Z,14.40
2022-09-10T05:56:41.798Z,14.40
2022-09-10T05:59:11.630Z,14.50
2022-09-10T06:01:42.439Z,14.60
2022-09-10T06:04:11.685Z,14.70
2022-09-10T06:06:39.786Z,14.70
2022-09-10T06:09:11.983Z,14.80
2022-09-10T06:11:59.616Z,14.90
2022-09-10T06:14:27.931Z,14.90
2022-09-10T06:16:55.955Z,14.90
2022-09-10T06:19:26.012Z,15.10
2022-09-10T06:21:54.870Z,15.20
2022-09-10T06:24:25.846Z,15.30
2022-09-10T06:26:57.219Z,15.30
2022-09-10T06:29:26.794Z,15.40
2022-09-10T06:31:55.337Z,15.50
2022-09-10T06:34:23.271Z,15.80
2022-09-10T06:36:53.293Z,15.90
2022-09-10T06:39:21.701Z,15.80
2022-09-10T06:41:53.961Z,15.80
2022-09-10T06:44:40.418Z,16.00
2022-09-10T06:47:55.780Z,16.00
2022-09-10T06:50:06.650Z,16.10
2022-09-10T06:52:37.673Z,16.00
2022-09-10T06:55:07.848Z,16.00
2022-09-10T06:57:46.444Z,16.20
2022-09-10T07:00:17.470Z,16.30
2022-09-10T07:02:50.584Z,16.40
2022-09-10T07:05:18.798Z,16.60
2022-09-10T07:07:47.374Z,16.70
2022-09-10T07:10:16.241Z,16.80
2022-09-10T07:12:44.746Z,17.00
2022-09-10T07:15:14.906Z,17.20
2022-09-10T07:17:42.832Z,17.50
2022-09-10T07:20:13.053Z,18.00
2022-09-10T07:22:48.447Z,18.80
2022-09-10T07:25:19.652Z,19.70
2022-09-10T07:27:54.767Z,20.90
2022-09-10T07:30:24.255Z,22.10
2022-09-10T07:32:53.138Z,24.40
2022-09-10T07:35:25.747Z,25.70
2022-09-10T07:37:54.810Z,26.90
2022-09-10T07:40:24.004Z,27.30
2022-09-10T07:42:52.574Z,27.70
2022-09-10T07:45:21.325Z,28.40
2022-09-10T07:47:50.897Z,29.50
2022-09-10T07:50:19.096Z,31.50
2022-09-10T07:52:50.092Z,32.30
2022-09-10T07:55:21.228Z,31.50
2022-09-10T07:57:51.108Z,30.30
2022-09-10T08:00:20.292Z,31.60
2022-09-10T08:02:53.982Z,30.80
2022-09-10T08:05:23.485Z,30.20
2022-09-10T08:07:54.822Z,29.40
2022-09-10T08:10:25.531Z,30.10
2022-09-10T08:12:53.714Z,31.30
2022-09-10T08:15:23.310Z,31.50
2022-09-10T08:17:52.768Z,31.00
2022-09-10T08:20:25.186Z,30.40
2022-09-10T08:22:53.746Z,30.30
2022-09-10T08:25:21.897Z,28.60
2022-09-10T08:27:50.311Z,28.30
2022-09-10T08:30:18.521Z,29.00
2022-09-10T08:32:47.149Z,29.20
2022-09-10T08:35:16.734Z,28.60
2022-09-10T08:37:44.770Z,28.40
2022-09-10T08:40:16.382Z,28.70
2022-09-10T08:42:50.120Z,29.20
2022-09-10T08:45:23.414Z,29.30
2022-09-10T08:47:59.572Z,29.80
2022-09-10T08:50:38.581Z,29.20
2022-09-10T08:53:25.666Z,29.80
2022-09-10T08:55:57.890Z,28.30
2022-09-10T08:58:30.726Z,28.70
2022-09-10T09:01:03.437Z,30.00
2022-09-10T09:03:37.770Z,31.00
2022-09-10T09:06:10.882Z,31.70
2022-09-10T09:08:48.304Z,32.20
2022-09-10T09:11:28.000Z,31.90
2022-09-10T09:14:11.850Z,32.20
2022-09-10T09:17:05.464Z,32.50
2022-09-10T09:19:35.765Z,32.20
2022-09-10T09:22:17.186Z,31.10
2022-09-10T09:24:56.471Z,30.50
2022-09-10T09:27:27.728Z,31.20
2022-09-10T09:30:01.254Z,31.50
2022-09-10T09:32:34.469Z,33.10
2022-09-10T09:35:09.555Z,32.60
2022-09-10T09:37:43.190Z,32.50
2022-09-10T09:40:26.350Z,30.90
2022-09-10T09:42:59.327Z,30.40
2022-09-10T09:45:37.217Z,28.80
2022-09-10T09:48:06.517Z,26.60
2022-09-10T09:50:38.771Z,26.20
2022-09-10T09:53:08.566Z,27.40
2022-09-10T09:55:40.578Z,28.50
2022-09-10T09:58:28.425Z,28.80
2022-09-10T10:01:09.725Z,27.10
2022-09-10T10:04:01.613Z,27.80
2022-09-10T10:06:32.564Z,28.30
2022-09-10T10:09:04.771Z,27.40
2022-09-10T10:11:49.727Z,25.80
2022-09-10T10:14:27.690Z,26.70
2022-09-10T10:17:00.017Z,28.40
2022-09-10T10:19:32.672Z,28.60
2022-09-10T10:22:21.484Z,29.20
2022-09-10T10:24:54.024Z,29.80
2022-09-10T10:27:30.133Z,30.10
2022-09-10T10:30:01.512Z,30.50
2022-09-10T10:32:40.472Z,29.80
2022-09-10T10:35:33.857Z,28.90
2022-09-10T10:38:30.505Z,28.80
2022-09-10T10:41:21.909Z,29.10
2022-09-10T10:44:00.334Z,28.50
2022-09-10T10:46:34.762Z,28.10
2022-09-10T10:49:16.793Z,27.50
2022-09-10T10:51:52.318Z,26.90
2022-09-10T10:54:38.259Z,27.40
2022-09-10T10:57:18.605Z,27.10
2022-09-10T10:59:55.695Z,27.30
2022-09-10T11:02:41.652Z,27.90
2022-09-10T11:05:21.373Z,28.60
2022-09-10T11:07:50.016Z,27.50
2022-09-10T11:10:24.131Z,26.80
2022-09-10T11:12:58.911Z,26.30
2022-09-10T11:15:33.671Z,26.50
2022-09-10T11:18:06.983Z,25.80
2022-09-10T11:20:42.434Z,25.50
2022-09-10T11:23:20.406Z,24.70
2022-09-10T11:25:55.589Z,24.40
2022-09-10T11:28:29.855Z,24.00
2022-09-10T11:31:05.077Z,23.70
2022-09-10T11:33:39.928Z,23.50
2022-09-10T11:36:13.274Z,23.30
2022-09-10T11:38:53.000Z,23.40
2022-09-10T11:41:24.782Z,23.90
2022-09-10T11:44:00.873Z,24.40
2022-09-10T11:46:36.596Z,25.10
2022-09-10T11:49:08.964Z,25.00
2022-09-10T11:51:38.734Z,24.70
2022-09-10T11:54:13.437Z,24.90
2022-09-10T11:56:55.540Z,25.70
2022-09-10T11:59:43.936Z,26.20
2022-09-10T12:02:29.702Z,26.20
2022-09-10T12:05:04.203Z,25.50
2022-09-10T12:07:49.029Z,26.10
2022-09-10T12:10:23.897Z,25.10
2022-09-10T12:12:53.295Z,25.60
2022-09-10T12:15:24.672Z,25.30
2022-09-10T12:17:57.420Z,25.30
2022-09-10T12:20:30.478Z,25.10
2022-09-10T12:22:58.927Z,25.50
2022-09-10T12:25:33.826Z,26.20
2022-09-10T12:28:07.635Z,26.30
2022-09-10T12:31:03.070Z,25.50
2022-09-10T12:34:16.034Z,25.20
2022-09-10T12:37:24.272Z,24.10
2022-09-10T12:40:25.770Z,23.80
2022-09-10T12:42:58.972Z,23.90
2022-09-10T12:46:00.704Z,24.40
2022-09-10T12:48:30.559Z,25.00
2022-09-10T12:51:00.849Z,25.60
2022-09-10T12:54:07.887Z,25.60
2022-09-10T12:57:09.595Z,25.30
2022-09-10T13:00:17.694Z,24.90
2022-09-10T13:02:53.472Z,24.90
2022-09-10T13:05:31.515Z,25.20
2022-09-10T13:08:18.452Z,24.20
2022-09-10T13:10:50.712Z,24.30
2022-09-10T13:13:35.194Z,24.60
2022-09-10T13:16:04.902Z,24.60
2022-09-10T13:18:33.982Z,24.70
2022-09-10T13:21:48.005Z,25.30
2022-09-10T13:24:39.486Z,25.80
2022-09-10T13:27:21.496Z,27.10
2022-09-10T13:29:54.479Z,27.30
2022-09-10T13:32:29.741Z,26.40
2022-09-10T13:35:17.114Z,25.60
2022-09-10T13:38:12.783Z,25.00
2022-09-10T13:41:11.345Z,24.50
2022-09-10T13:44:02.745Z,24.30
2022-09-10T13:46:36.982Z,23.80
2022-09-10T13:49:12.850Z,23.50
2022-09-10T13:51:48.678Z,23.50
2022-09-10T13:54:31.140Z,23.30
2022-09-10T13:57:07.082Z,23.50
2022-09-10T13:59:36.962Z,23.50
2022-09-10T14:02:05.386Z,23.50
2022-09-10T14:04:36.590Z,23.30
2022-09-10T14:07:13.014Z,23.00
2022-09-10T14:09:43.370Z,22.80
2022-09-10T14:12:13.786Z,22.60
2022-09-10T14:14:45.916Z,22.50
2022-09-10T14:17:19.615Z,22.30
2022-09-10T14:19:52.065Z,22.20
2022-09-10T14:22:22.199Z,22.30
2022-09-10T14:24:54.081Z,22.30
2022-09-10T14:27:27.639Z,22.20
2022-09-10T14:29:57.336Z,22.10
2022-09-10T14:32:33.417Z,21.90
2022-09-10T14:35:37.670Z,21.80
2022-09-10T14:38:21.212Z,21.60
2022-09-10T14:40:49.673Z,21.60
2022-09-10T14:43:29.475Z,21.80
2022-09-10T14:45:57.592Z,22.00
2022-09-10T14:48:37.477Z,22.30
2022-09-10T14:51:17.561Z,22.60
2022-09-10T14:53:47.111Z,22.70
2022-09-10T14:56:25.180Z,22.90
2022-09-10T14:59:00.678Z,22.80
2022-09-10T15:01:29.267Z,22.50
2022-09-10T15:03:57.546Z,22.30
2022-09-10T15:06:26.979Z,22.10
2022-09-10T15:08:57.007Z,22.10
2022-09-10T15:11:27.390Z,22.20
2022-09-10T15:13:56.574Z,22.10
2022-09-10T15:16:26.396Z,22.20
2022-09-10T15:18:54.397Z,22.30
2022-09-10T15:21:23.054Z,22.40
2022-09-10T15:23:51.025Z,22.70
2022-09-10T15:26:19.721Z,22.70
2022-09-10T15:28:47.787Z,22.50
2022-09-10T15:31:18.166Z,22.50
2022-09-10T15:33:47.572Z,23.00
2022-09-10T15:36:16.064Z,23.20
2022-09-10T15:38:44.051Z,23.00
2022-09-10T15:41:14.084Z,22.80
2022-09-10T15:43:43.847Z,23.00
2022-09-10T15:46:12.953Z,23.60
2022-09-10T15:48:41.141Z,23.70
2022-09-10T15:51:14.912Z,24.40
2022-09-10T15:53:44.062Z,24.80
2022-09-10T15:56:12.990Z,25.50
2022-09-10T15:58:41.642Z,25.30
2022-09-10T16:01:12.420Z,24.50
2022-09-10T16:03:45.364Z,24.30
2022-09-10T16:06:15.558Z,24.40
2022-09-10T16:08:48.426Z,24.20
2022-09-10T16:11:18.082Z,24.30
2022-09-10T16:13:46.797Z,24.10
2022-09-10T16:16:18.879Z,23.90
2022-09-10T16:18:47.231Z,23.60
2022-09-10T16:21:18.487Z,23.70
2022-09-10T16:23:48.100Z,24.20
2022-09-10T16:26:19.931Z,24.00
2022-09-10T16:28:50.093Z,24.00
2022-09-10T16:31:20.287Z,24.10
2022-09-10T16:33:54.490Z,24.40
2022-09-10T16:36:24.975Z,24.50
2022-09-10T16:38:55.092Z,23.80
2022-09-10T16:41:24.533Z,23.80
2022-09-10T16:43:53.378Z,23.30
2022-09-10T16:46:21.420Z,23.20
2022-09-10T16:48:53.056Z,22.80
2022-09-10T16:51:23.214Z,22.70
2022-09-10T16:53:56.866Z,22.30
2022-09-10T16:56:26.584Z,22.20
2022-09-10T16:58:54.875Z,22.10
2022-09-10T17:01:23.301Z,22.00
2022-09-10T17:03:52.040Z,21.80
2022-09-10T17:06:23.049Z,21.70
2022-09-10T17:08:51.244Z,21.60
2022-09-10T17:11:21.317Z,21.50
2022-09-10T17:13:50.859Z,21.30
2022-09-10T17:16:25.697Z,21.20
2022-09-10T17:18:58.877Z,21.10
2022-09-10T17:21:28.307Z,20.90
2022-09-10T17:23:57.247Z,20.90
2022-09-10T17:26:27.269Z,20.70
2022-09-10T17:28:56.314Z,20.60
2022-09-10T17:31:25.342Z,20.60
2022-09-10T17:33:53.351Z,20.50
2022-09-10T17:36:21.789Z,20.50
2022-09-10T17:38:50.647Z,20.40
2022-09-10T17:41:18.573Z,20.40
2022-09-10T17:43:48.110Z,20.40
2022-09-10T17:46:19.078Z,20.30
2022-09-10T17:48:48.196Z,20.30
2022-09-10T17:51:18.564Z,20.10
2022-09-10T17:53:46.603Z,20.10
2022-09-10T17:56:16.489Z,20.10
2022-09-10T17:58:45.435Z,20.10
2022-09-10T18:01:23.552Z,20.00
2022-09-10T18:03:53.554Z,20.00
2022-09-10T18:06:24.384Z,20.00
2022-09-10T18:08:52.781Z,19.90
2022-09-10T18:11:23.302Z,20.00
2022-09-10T18:13:53.169Z,19.90
2022-09-10T18:16:25.087Z,19.80
2022-09-10T18:18:55.756Z,19.80
2022-09-10T18:21:25.472Z,19.70
2022-09-10T18:23:54.426Z,19.60
2022-09-10T18:26:24.129Z,19.60
2022-09-10T18:28:57.180Z,19.50
2022-09-10T18:31:28.646Z,19.40
2022-09-10T18:33:57.031Z,19.40
2022-09-10T18:36:27.067Z,19.40
2022-09-10T18:38:55.281Z,19.30
2022-09-10T18:41:25.673Z,19.30
2022-09-10T18:43:57.250Z,19.30
2022-09-10T18:46:28.998Z,19.30
2022-09-10T18:48:57.742Z,19.20
2022-09-10T18:51:27.195Z,19.20
2022-09-10T18:53:56.815Z,19.20
2022-09-10T18:56:27.453Z,19.20
2022-09-10T18:58:56.869Z,19.10
2022-09-10T19:01:28.460Z,19.10
2022-09-10T19:03:57.528Z,19.10
2022-09-10T19:06:27.428Z,19.10
2022-09-10T19:08:57.697Z,19.10
2022-09-10T19:11:28.688Z,19.00
2022-09-10T19:13:58.065Z,19.10
2022-09-10T19:16:29.774Z,19.00
2022-09-10T19:18:59.224Z,19.00
2022-09-10T19:21:29.342Z,19.10
2022-09-10T19:23:59.713Z,19.00
2022-09-10T19:26:29.140Z,19.00
2022-09-10T19:28:58.249Z,19.00
2022-09-10T19:31:29.800Z,19.00
2022-09-10T19:34:00.331Z,19.00
2022-09-10T19:36:30.416Z,19.00
2022-09-10T19:38:59.514Z,18.90
2022-09-10T19:41:27.491Z,18.90
2022-09-10T19:43:56.523Z,18.90
2022-09-10T19:46:28.314Z,18.90
2022-09-10T19:48:59.279Z,18.90
2022-09-10T19:51:28.994Z,19.00
2022-09-10T19:53:57.373Z,18.90
2022-09-10T19:56:29.848Z,18.90
2022-09-10T19:58:57.857Z,18.80
2022-09-10T20:01:31.174Z,18.80
2022-09-10T20:04:01.687Z,18.70
2022-09-10T20:06:30.553Z,18.70
2022-09-10T20:08:58.895Z,18.70
2022-09-10T20:11:28.536Z,18.70
2022-09-10T20:13:58.475Z,18.70
2022-09-10T20:16:28.447Z,18.60
2022-09-10T20:18:56.919Z,18.50
2022-09-10T20:21:26.873Z,18.50
2022-09-10T20:23:56.621Z,18.50
2022-09-10T20:26:26.273Z,18.40
2022-09-10T20:28:56.504Z,18.40
2022-09-10T20:31:28.044Z,18.30
2022-09-10T20:33:57.582Z,18.30
2022-09-10T20:36:27.293Z,18.20
2022-09-10T20:38:56.827Z,18.20
2022-09-10T20:41:29.985Z,18.10
2022-09-10T20:43:59.932Z,18.10
2022-09-10T20:46:30.872Z,18.10
2022-09-10T20:49:02.916Z,18.00
2022-09-10T20:51:33.102Z,18.00
2022-09-10T20:54:01.256Z,18.00
2022-09-10T20:56:29.406Z,18.00
2022-09-10T20:58:57.487Z,18.00
2022-09-10T21:01:28.017Z,18.00
2022-09-10T21:03:59.190Z,17.90
2022-09-10T21:06:29.300Z,17.90
2022-09-10T21:08:57.341Z,17.80
2022-09-10T21:11:27.616Z,17.80
2022-09-10T21:13:57.660Z,17.80
2022-09-10T21:16:27.963Z,17.80
2022-09-10T21:19:00.686Z,17.80
2022-09-10T21:21:30.863Z,17.80
2022-09-10T21:24:00.910Z,17.80
2022-09-10T21:26:30.933Z,17.70
2022-09-10T21:29:00.470Z,17.70
2022-09-10T21:31:29.585Z,17.70
2022-09-10T21:34:02.973Z,17.70
2022-09-10T21:36:32.223Z,17.70
2022-09-10T21:39:01.902Z,17.70
2022-09-10T21:41:32.180Z,17.60
2022-09-10T21:44:01.134Z,17.60
2022-09-10T21:46:29.421Z,17.60
2022-09-10T21:48:59.417Z,17.60
2022-09-10T21:51:28.271Z,17.60
2022-09-10T21:53:58.114Z,17.50
2022-09-10T21:56:27.644Z,17.50
2022-09-10T21:58:56.780Z,17.50
2022-09-10T22:01:27.375Z,17.40
2022-09-10T22:03:59.577Z,17.40
2022-09-10T22:06:29.066Z,17.40
2022-09-10T22:08:59.065Z,17.30
2022-09-10T22:11:30.433Z,17.30
2022-09-10T22:14:00.942Z,17.30
2022-09-10T22:16:30.162Z,17.30
2022-09-10T22:19:01.157Z,17.20
2022-09-10T22:21:30.345Z,17.20
2022-09-10T22:23:58.314Z,17.20
2022-09-10T22:26:28.447Z,17.20
2022-09-10T22:28:59.217Z,17.10
2022-09-10T22:31:29.575Z,17.10
2022-09-10T22:34:00.431Z,17.10
2022-09-10T22:36:31.450Z,17.00
2022-09-10T22:39:01.145Z,17.10
2022-09-10T22:41:31.529Z,17.00
2022-09-10T22:43:59.778Z,17.00
2022-09-10T22:46:28.570Z,16.90
2022-09-10T22:48:57.151Z,16.90
2022-09-10T22:51:29.494Z,16.90
2022-09-10T22:53:58.716Z,16.90
2022-09-10T22:56:28.064Z,16.90
2022-09-10T22:58:57.628Z,16.90
2022-09-10T23:01:28.407Z,16.80
2022-09-10T23:03:57.974Z,16.70
2022-09-10T23:06:28.751Z,16.70
2022-09-10T23:08:58.658Z,16.70
2022-09-10T23:11:28.708Z,16.70
2022-09-10T23:13:58.495Z,16.70
2022-09-10T23:16:28.774Z,16.60
2022-09-10T23:18:58.790Z,16.50
2022-09-10T23:21:29.833Z,16.50
2022-09-10T23:23:59.753Z,16.50
2022-09-10T23:26:28.776Z,16.50
2022-09-10T23:28:57.562Z,16.50
2022-09-10T23:31:27.493Z,16.40
2022-09-10T23:33:58.141Z,16.40
2022-09-10T23:36:28.749Z,16.30
2022-09-10T23:38:57.036Z,16.30
2022-09-10T23:41:25.679Z,16.30
2022-09-10T23:43:54.106Z,16.20
2022-09-10T23:46:22.306Z,16.20
2022-09-10T23:48:50.440Z,16.20
2022-09-10T23:51:20.246Z,16.20
2022-09-10T23:53:50.349Z,16.10
2022-09-10T23:56:20.163Z,16.00
2022-09-10T23:58:48.617Z,16.00
